This is the latest recevied weather packets stored in our database for station/object HB9KBJ-8. If no packets are shown the sender has not sent any weather packets the latest 10 day(s).
| Time | Temp. | Humidity | Pressure | Rain* | Wind** | Luminosity | Snow |
|---|---|---|---|---|---|---|---|
| 1777726335 | 25° C | 40% | 1019.7 hPa | 0 mm | - | 707 W/m² | - |
| 1777726036 | 23.89° C | 42% | 1019.8 hPa | 0 mm | - | 661 W/m² | - |
| 1777725750 | 24.44° C | 43% | 1019.8 hPa | 0 mm | - | 668 W/m² | - |
| 1777725449 | 24.44° C | 42% | 1019.9 hPa | 0 mm | - | 733 W/m² | - |
| 1777725142 | 25° C | 41% | 1019.9 hPa | 0 mm | - | 763 W/m² | - |
| 1777724840 | 25.56° C | 41% | 1020.1 hPa | 0 mm | - | 802 W/m² | - |
| 1777724552 | 24.44° C | 44% | 1020.1 hPa | 0 mm | - | 780 W/m² | - |
| 1777724248 | 23.33° C | 44% | 1020.1 hPa | 0 mm | - | 795 W/m² | - |
| 1777723944 | 23.89° C | 44% | 1020.3 hPa | 0 mm | - | 796 W/m² | - |
| 1777723635 | 23.33° C | 46% | 1020.3 hPa | 0 mm | - | 789 W/m² | - |
| 1777723354 | 23.33° C | 46% | 1020.4 hPa | 0 mm | - | 789 W/m² | - |
| 1777723046 | 22.78° C | 47% | 1020.5 hPa | 0 mm | - | 789 W/m² | - |
| 1777722738 | 22.78° C | 46% | 1020.7 hPa | 0 mm | - | 796 W/m² | - |
| 1777722455 | 22.78° C | 46% | 1020.6 hPa | 0 mm | - | 758 W/m² | - |
| 1777722146 | 23.33° C | 46% | 1020.7 hPa | 0 mm | - | 788 W/m² | - |
| 1777721841 | 22.22° C | 47% | 1020.8 hPa | 0 mm | - | 729 W/m² | - |
| 1777721536 | 22.78° C | 45% | 1020.9 hPa | 0 mm | - | 756 W/m² | - |
| 1777721251 | 22.78° C | 47% | 1021 hPa | 0 mm | - | 793 W/m² | - |
| 1777720945 | 22.78° C | 47% | 1021.1 hPa | 0 mm | - | 782 W/m² | - |
| 1777720639 | 22.78° C | 46% | 1021.2 hPa | 0 mm | - | 784 W/m² | - |
| 1777720339 | 22.78° C | 45% | 1021.3 hPa | 0 mm | - | 795 W/m² | - |
| 1777720051 | 23.33° C | 45% | 1021.4 hPa | 0 mm | - | 775 W/m² | - |
| 1777719748 | 21.67° C | 49% | 1021.5 hPa | 0 mm | - | 777 W/m² | - |
| 1777719455 | 22.78° C | 47% | 1021.5 hPa | 0 mm | - | 777 W/m² | - |
| 1777719150 | 21.11° C | 50% | 1021.6 hPa | 0 mm | - | 749 W/m² | - |
* Rain latest hour (hover to see other rain measurements)
** Current wind speed in m/s (hover to see current wind gust speed)